sensor_id;sensor_type;location;lat;lon;timestamp;P1;durP1;ratioP1;P2;durP2;ratioP2
12122;SDS011;6125;59.628;17.852;2023-12-22T00:00:31;0.77;;;0.77;;
12122;SDS011;6125;59.628;17.852;2023-12-22T00:03:01;2.37;;;1.00;;
12122;SDS011;6125;59.628;17.852;2023-12-22T00:05:28;1.30;;;1.03;;
12122;SDS011;6125;59.628;17.852;2023-12-22T00:07:57;2.33;;;1.00;;
12122;SDS011;6125;59.628;17.852;2023-12-22T00:10:24;1.90;;;1.00;;
12122;SDS011;6125;59.628;17.852;2023-12-22T00:12:52;1.40;;;0.70;;
12122;SDS011;6125;59.628;17.852;2023-12-22T00:15:21;0.97;;;0.70;;
12122;SDS011;6125;59.628;17.852;2023-12-22T00:17:48;0.90;;;0.80;;
12122;SDS011;6125;59.628;17.852;2023-12-22T00:20:16;1.47;;;1.00;;
12122;SDS011;6125;59.628;17.852;2023-12-22T00:22:44;1.33;;;0.90;;
12122;SDS011;6125;59.628;17.852;2023-12-22T00:25:15;2.00;;;0.80;;
12122;SDS011;6125;59.628;17.852;2023-12-22T00:27:42;0.77;;;0.70;;
12122;SDS011;6125;59.628;17.852;2023-12-22T00:30:10;7.70;;;4.47;;
12122;SDS011;6125;59.628;17.852;2023-12-22T00:32:37;7.27;;;4.00;;
12122;SDS011;6125;59.628;17.852;2023-12-22T00:35:05;12.17;;;6.23;;
12122;SDS011;6125;59.628;17.852;2023-12-22T00:37:32;3.57;;;2.27;;
12122;SDS011;6125;59.628;17.852;2023-12-22T00:40:00;5.10;;;1.70;;
12122;SDS011;6125;59.628;17.852;2023-12-22T00:42:31;3.33;;;2.10;;
12122;SDS011;6125;59.628;17.852;2023-12-22T00:44:59;1.73;;;1.00;;
12122;SDS011;6125;59.628;17.852;2023-12-22T00:47:26;1.53;;;0.97;;
12122;SDS011;6125;59.628;17.852;2023-12-22T00:49:56;1.80;;;1.07;;
12122;SDS011;6125;59.628;17.852;2023-12-22T00:52:23;0.83;;;0.73;;
12122;SDS011;6125;59.628;17.852;2023-12-22T00:54:52;2.37;;;0.70;;
12122;SDS011;6125;59.628;17.852;2023-12-22T00:57:22;2.53;;;0.83;;
12122;SDS011;6125;59.628;17.852;2023-12-22T00:59:53;0.77;;;0.73;;
12122;SDS011;6125;59.628;17.852;2023-12-22T01:02:20;3.13;;;0.70;;
12122;SDS011;6125;59.628;17.852;2023-12-22T01:04:49;0.80;;;0.80;;
12122;SDS011;6125;59.628;17.852;2023-12-22T01:07:16;1.37;;;0.63;;
12122;SDS011;6125;59.628;17.852;2023-12-22T01:09:44;0.97;;;0.73;;
12122;SDS011;6125;59.628;17.852;2023-12-22T01:12:19;1.10;;;0.83;;
12122;SDS011;6125;59.628;17.852;2023-12-22T01:14:47;1.03;;;0.63;;
12122;SDS011;6125;59.628;17.852;2023-12-22T01:17:18;2.37;;;0.90;;
12122;SDS011;6125;59.628;17.852;2023-12-22T01:19:45;0.63;;;0.60;;
12122;SDS011;6125;59.628;17.852;2023-12-22T01:22:12;0.70;;;0.70;;
12122;SDS011;6125;59.628;17.852;2023-12-22T01:24:39;0.93;;;0.93;;
12122;SDS011;6125;59.628;17.852;2023-12-22T01:27:08;2.20;;;0.70;;
12122;SDS011;6125;59.628;17.852;2023-12-22T01:29:36;1.43;;;0.90;;
12122;SDS011;6125;59.628;17.852;2023-12-22T01:32:03;0.60;;;0.60;;
12122;SDS011;6125;59.628;17.852;2023-12-22T01:34:34;0.80;;;0.80;;
12122;SDS011;6125;59.628;17.852;2023-12-22T01:37:02;2.03;;;1.63;;
12122;SDS011;6125;59.628;17.852;2023-12-22T01:39:29;1.07;;;0.80;;
12122;SDS011;6125;59.628;17.852;2023-12-22T01:41:57;2.00;;;0.97;;
12122;SDS011;6125;59.628;17.852;2023-12-22T01:44:25;2.60;;;1.63;;
12122;SDS011;6125;59.628;17.852;2023-12-22T01:46:54;0.60;;;0.60;;
12122;SDS011;6125;59.628;17.852;2023-12-22T01:49:21;1.33;;;0.90;;
12122;SDS011;6125;59.628;17.852;2023-12-22T01:51:52;0.87;;;0.73;;
12122;SDS011;6125;59.628;17.852;2023-12-22T01:54:19;0.80;;;0.80;;
12122;SDS011;6125;59.628;17.852;2023-12-22T01:56:47;1.20;;;0.80;;
12122;SDS011;6125;59.628;17.852;2023-12-22T01:59:14;1.50;;;0.80;;
12122;SDS011;6125;59.628;17.852;2023-12-22T02:01:42;1.00;;;0.80;;
12122;SDS011;6125;59.628;17.852;2023-12-22T02:04:11;0.60;;;0.60;;
12122;SDS011;6125;59.628;17.852;2023-12-22T02:06:40;2.60;;;0.87;;
12122;SDS011;6125;59.628;17.852;2023-12-22T02:09:12;1.30;;;0.77;;
12122;SDS011;6125;59.628;17.852;2023-12-22T02:11:40;0.70;;;0.70;;
12122;SDS011;6125;59.628;17.852;2023-12-22T02:14:09;0.90;;;0.90;;
12122;SDS011;6125;59.628;17.852;2023-12-22T02:16:45;1.00;;;0.90;;
12122;SDS011;6125;59.628;17.852;2023-12-22T02:19:21;2.10;;;1.10;;
12122;SDS011;6125;59.628;17.852;2023-12-22T02:21:59;0.83;;;0.80;;
12122;SDS011;6125;59.628;17.852;2023-12-22T02:24:28;0.70;;;0.67;;
12122;SDS011;6125;59.628;17.852;2023-12-22T02:26:55;0.97;;;0.70;;
12122;SDS011;6125;59.628;17.852;2023-12-22T02:29:30;1.37;;;1.10;;
12122;SDS011;6125;59.628;17.852;2023-12-22T02:32:02;1.27;;;1.00;;
12122;SDS011;6125;59.628;17.852;2023-12-22T02:34:33;1.97;;;1.10;;
12122;SDS011;6125;59.628;17.852;2023-12-22T02:37:04;1.20;;;0.90;;
12122;SDS011;6125;59.628;17.852;2023-12-22T02:39:35;1.17;;;1.07;;
12122;SDS011;6125;59.628;17.852;2023-12-22T02:42:02;1.73;;;1.30;;
12122;SDS011;6125;59.628;17.852;2023-12-22T02:44:36;1.50;;;1.03;;
12122;SDS011;6125;59.628;17.852;2023-12-22T02:47:04;1.33;;;1.10;;
12122;SDS011;6125;59.628;17.852;2023-12-22T02:49:32;1.77;;;1.03;;
12122;SDS011;6125;59.628;17.852;2023-12-22T02:51:59;2.90;;;1.67;;
12122;SDS011;6125;59.628;17.852;2023-12-22T02:54:26;1.93;;;1.30;;
12122;SDS011;6125;59.628;17.852;2023-12-22T02:56:58;1.77;;;1.50;;
12122;SDS011;6125;59.628;17.852;2023-12-22T02:59:25;3.90;;;1.83;;
12122;SDS011;6125;59.628;17.852;2023-12-22T03:01:53;2.37;;;1.60;;
12122;SDS011;6125;59.628;17.852;2023-12-22T03:04:21;2.53;;;1.50;;
12122;SDS011;6125;59.628;17.852;2023-12-22T03:06:49;3.00;;;2.00;;
12122;SDS011;6125;59.628;17.852;2023-12-22T03:09:16;3.67;;;1.80;;
12122;SDS011;6125;59.628;17.852;2023-12-22T03:11:45;3.33;;;2.20;;
12122;SDS011;6125;59.628;17.852;2023-12-22T03:14:14;2.93;;;1.87;;
12122;SDS011;6125;59.628;17.852;2023-12-22T03:16:41;2.33;;;1.80;;
12122;SDS011;6125;59.628;17.852;2023-12-22T03:19:08;2.73;;;1.87;;
12122;SDS011;6125;59.628;17.852;2023-12-22T03:21:35;5.07;;;2.17;;
12122;SDS011;6125;59.628;17.852;2023-12-22T03:24:02;2.63;;;1.87;;
12122;SDS011;6125;59.628;17.852;2023-12-22T03:26:30;3.57;;;2.13;;
12122;SDS011;6125;59.628;17.852;2023-12-22T03:28:57;4.80;;;2.33;;
12122;SDS011;6125;59.628;17.852;2023-12-22T03:31:25;4.40;;;2.17;;
12122;SDS011;6125;59.628;17.852;2023-12-22T03:33:54;4.63;;;1.97;;
12122;SDS011;6125;59.628;17.852;2023-12-22T03:36:21;4.37;;;2.10;;
12122;SDS011;6125;59.628;17.852;2023-12-22T03:38:48;3.70;;;2.40;;
12122;SDS011;6125;59.628;17.852;2023-12-22T03:41:15;5.57;;;2.57;;
12122;SDS011;6125;59.628;17.852;2023-12-22T03:43:42;5.63;;;2.43;;
12122;SDS011;6125;59.628;17.852;2023-12-22T03:46:10;5.83;;;2.73;;
12122;SDS011;6125;59.628;17.852;2023-12-22T03:48:40;5.53;;;2.87;;
12122;SDS011;6125;59.628;17.852;2023-12-22T03:51:09;2.80;;;2.00;;
12122;SDS011;6125;59.628;17.852;2023-12-22T03:53:39;4.60;;;2.30;;
12122;SDS011;6125;59.628;17.852;2023-12-22T03:56:07;4.70;;;2.53;;
12122;SDS011;6125;59.628;17.852;2023-12-22T03:58:34;4.70;;;2.90;;
12122;SDS011;6125;59.628;17.852;2023-12-22T04:01:02;7.17;;;2.47;;
12122;SDS011;6125;59.628;17.852;2023-12-22T04:03:29;4.77;;;2.50;;
12122;SDS011;6125;59.628;17.852;2023-12-22T04:05:58;4.33;;;2.63;;
12122;SDS011;6125;59.628;17.852;2023-12-22T04:08:28;4.83;;;3.00;;
12122;SDS011;6125;59.628;17.852;2023-12-22T04:10:55;5.00;;;2.87;;
12122;SDS011;6125;59.628;17.852;2023-12-22T04:13:25;4.20;;;2.60;;
12122;SDS011;6125;59.628;17.852;2023-12-22T04:15:52;5.17;;;2.63;;
12122;SDS011;6125;59.628;17.852;2023-12-22T04:18:19;4.30;;;2.23;;
12122;SDS011;6125;59.628;17.852;2023-12-22T04:20:48;4.40;;;2.60;;
12122;SDS011;6125;59.628;17.852;2023-12-22T04:23:20;4.70;;;2.80;;
12122;SDS011;6125;59.628;17.852;2023-12-22T04:25:47;5.43;;;2.33;;
12122;SDS011;6125;59.628;17.852;2023-12-22T04:28:16;4.40;;;2.47;;
12122;SDS011;6125;59.628;17.852;2023-12-22T04:30:43;4.00;;;2.67;;
12122;SDS011;6125;59.628;17.852;2023-12-22T04:33:10;3.73;;;2.50;;
12122;SDS011;6125;59.628;17.852;2023-12-22T04:35:37;4.40;;;2.37;;
12122;SDS011;6125;59.628;17.852;2023-12-22T04:38:04;3.53;;;1.93;;
12122;SDS011;6125;59.628;17.852;2023-12-22T04:40:33;4.03;;;2.57;;
12122;SDS011;6125;59.628;17.852;2023-12-22T04:43:01;5.60;;;2.60;;
12122;SDS011;6125;59.628;17.852;2023-12-22T04:45:28;5.27;;;2.37;;
12122;SDS011;6125;59.628;17.852;2023-12-22T04:47:58;4.23;;;2.40;;
12122;SDS011;6125;59.628;17.852;2023-12-22T04:50:25;4.73;;;2.80;;
12122;SDS011;6125;59.628;17.852;2023-12-22T04:52:55;4.33;;;2.40;;
12122;SDS011;6125;59.628;17.852;2023-12-22T04:55:23;3.80;;;2.27;;
12122;SDS011;6125;59.628;17.852;2023-12-22T04:57:51;3.57;;;2.07;;
12122;SDS011;6125;59.628;17.852;2023-12-22T05:00:27;4.87;;;1.80;;
12122;SDS011;6125;59.628;17.852;2023-12-22T05:02:55;4.73;;;2.63;;
12122;SDS011;6125;59.628;17.852;2023-12-22T05:05:22;4.67;;;2.27;;
12122;SDS011;6125;59.628;17.852;2023-12-22T05:07:49;4.03;;;2.07;;
12122;SDS011;6125;59.628;17.852;2023-12-22T05:10:16;3.50;;;2.07;;
12122;SDS011;6125;59.628;17.852;2023-12-22T05:12:43;3.00;;;1.97;;
12122;SDS011;6125;59.628;17.852;2023-12-22T05:15:12;3.43;;;1.90;;
12122;SDS011;6125;59.628;17.852;2023-12-22T05:17:40;4.07;;;2.10;;
12122;SDS011;6125;59.628;17.852;2023-12-22T05:20:07;3.83;;;2.40;;
12122;SDS011;6125;59.628;17.852;2023-12-22T05:22:36;4.53;;;2.50;;
12122;SDS011;6125;59.628;17.852;2023-12-22T05:25:04;3.17;;;1.93;;
12122;SDS011;6125;59.628;17.852;2023-12-22T05:27:32;4.37;;;2.13;;
12122;SDS011;6125;59.628;17.852;2023-12-22T05:29:59;3.80;;;1.97;;
12122;SDS011;6125;59.628;17.852;2023-12-22T05:32:30;3.93;;;2.20;;
12122;SDS011;6125;59.628;17.852;2023-12-22T05:34:57;4.30;;;2.50;;
12122;SDS011;6125;59.628;17.852;2023-12-22T05:37:24;2.70;;;1.60;;
12122;SDS011;6125;59.628;17.852;2023-12-22T05:39:51;3.30;;;1.93;;
12122;SDS011;6125;59.628;17.852;2023-12-22T05:42:18;4.97;;;2.23;;
12122;SDS011;6125;59.628;17.852;2023-12-22T05:44:48;4.03;;;1.90;;
12122;SDS011;6125;59.628;17.852;2023-12-22T05:47:16;3.73;;;2.20;;
12122;SDS011;6125;59.628;17.852;2023-12-22T05:49:45;3.67;;;2.17;;
12122;SDS011;6125;59.628;17.852;2023-12-22T05:52:12;2.73;;;2.27;;
12122;SDS011;6125;59.628;17.852;2023-12-22T05:54:39;2.80;;;1.80;;
12122;SDS011;6125;59.628;17.852;2023-12-22T05:57:07;4.07;;;2.40;;
12122;SDS011;6125;59.628;17.852;2023-12-22T05:59:34;3.00;;;2.20;;
12122;SDS011;6125;59.628;17.852;2023-12-22T06:02:01;3.10;;;2.33;;
12122;SDS011;6125;59.628;17.852;2023-12-22T06:04:32;2.73;;;1.90;;
12122;SDS011;6125;59.628;17.852;2023-12-22T06:07:01;5.47;;;2.40;;
12122;SDS011;6125;59.628;17.852;2023-12-22T06:09:29;4.30;;;1.80;;
12122;SDS011;6125;59.628;17.852;2023-12-22T06:11:57;2.63;;;1.83;;
12122;SDS011;6125;59.628;17.852;2023-12-22T06:14:24;3.17;;;1.90;;
12122;SDS011;6125;59.628;17.852;2023-12-22T06:16:51;2.70;;;1.63;;
12122;SDS011;6125;59.628;17.852;2023-12-22T06:19:18;4.03;;;2.53;;
12122;SDS011;6125;59.628;17.852;2023-12-22T06:21:47;4.53;;;2.43;;
12122;SDS011;6125;59.628;17.852;2023-12-22T06:24:17;3.73;;;1.90;;
12122;SDS011;6125;59.628;17.852;2023-12-22T06:26:44;3.20;;;2.03;;
12122;SDS011;6125;59.628;17.852;2023-12-22T06:29:12;4.10;;;2.30;;
12122;SDS011;6125;59.628;17.852;2023-12-22T06:31:39;2.47;;;1.90;;
12122;SDS011;6125;59.628;17.852;2023-12-22T06:34:06;4.27;;;2.33;;
12122;SDS011;6125;59.628;17.852;2023-12-22T06:36:33;3.73;;;2.17;;
12122;SDS011;6125;59.628;17.852;2023-12-22T06:39:01;3.70;;;2.57;;
12122;SDS011;6125;59.628;17.852;2023-12-22T06:41:30;4.23;;;2.03;;
12122;SDS011;6125;59.628;17.852;2023-12-22T06:43:57;3.77;;;2.20;;
12122;SDS011;6125;59.628;17.852;2023-12-22T06:46:25;3.80;;;2.50;;
12122;SDS011;6125;59.628;17.852;2023-12-22T06:48:54;2.87;;;2.00;;
12122;SDS011;6125;59.628;17.852;2023-12-22T06:51:24;3.53;;;2.20;;
12122;SDS011;6125;59.628;17.852;2023-12-22T06:53:52;3.33;;;2.10;;
12122;SDS011;6125;59.628;17.852;2023-12-22T06:56:23;3.47;;;1.80;;
12122;SDS011;6125;59.628;17.852;2023-12-22T06:58:55;3.27;;;1.83;;
12122;SDS011;6125;59.628;17.852;2023-12-22T07:01:24;3.43;;;1.83;;
12122;SDS011;6125;59.628;17.852;2023-12-22T07:03:53;4.23;;;2.50;;
12122;SDS011;6125;59.628;17.852;2023-12-22T07:06:23;4.27;;;2.30;;
12122;SDS011;6125;59.628;17.852;2023-12-22T07:11:57;3.17;;;2.07;;
12122;SDS011;6125;59.628;17.852;2023-12-22T07:14:30;4.37;;;2.53;;
12122;SDS011;6125;59.628;17.852;2023-12-22T07:16:57;3.97;;;2.17;;
12122;SDS011;6125;59.628;17.852;2023-12-22T07:19:26;4.33;;;2.50;;
12122;SDS011;6125;59.628;17.852;2023-12-22T07:21:54;2.90;;;1.90;;
12122;SDS011;6125;59.628;17.852;2023-12-22T07:24:24;3.80;;;2.10;;
12122;SDS011;6125;59.628;17.852;2023-12-22T07:26:51;5.33;;;2.43;;
12122;SDS011;6125;59.628;17.852;2023-12-22T07:29:18;6.07;;;2.23;;
12122;SDS011;6125;59.628;17.852;2023-12-22T07:31:54;5.53;;;2.40;;
12122;SDS011;6125;59.628;17.852;2023-12-22T07:34:21;3.63;;;2.40;;
12122;SDS011;6125;59.628;17.852;2023-12-22T07:36:48;3.97;;;2.63;;
12122;SDS011;6125;59.628;17.852;2023-12-22T07:39:15;5.67;;;2.70;;
12122;SDS011;6125;59.628;17.852;2023-12-22T07:41:43;3.57;;;2.37;;
12122;SDS011;6125;59.628;17.852;2023-12-22T07:44:11;4.43;;;2.70;;
12122;SDS011;6125;59.628;17.852;2023-12-22T07:46:38;5.33;;;2.77;;
12122;SDS011;6125;59.628;17.852;2023-12-22T07:49:07;4.93;;;2.90;;
12122;SDS011;6125;59.628;17.852;2023-12-22T07:51:34;4.07;;;2.80;;
12122;SDS011;6125;59.628;17.852;2023-12-22T07:54:01;3.97;;;2.30;;
12122;SDS011;6125;59.628;17.852;2023-12-22T07:56:29;4.70;;;3.00;;
12122;SDS011;6125;59.628;17.852;2023-12-22T07:58:56;5.27;;;2.80;;
12122;SDS011;6125;59.628;17.852;2023-12-22T08:01:25;8.57;;;3.27;;
12122;SDS011;6125;59.628;17.852;2023-12-22T08:03:52;7.27;;;3.33;;
12122;SDS011;6125;59.628;17.852;2023-12-22T08:06:24;6.17;;;3.20;;
12122;SDS011;6125;59.628;17.852;2023-12-22T08:08:52;6.43;;;2.87;;
12122;SDS011;6125;59.628;17.852;2023-12-22T08:11:19;3.80;;;2.50;;
12122;SDS011;6125;59.628;17.852;2023-12-22T08:13:49;7.10;;;2.87;;
12122;SDS011;6125;59.628;17.852;2023-12-22T08:16:16;6.57;;;2.87;;
12122;SDS011;6125;59.628;17.852;2023-12-22T08:18:43;3.57;;;2.80;;
12122;SDS011;6125;59.628;17.852;2023-12-22T08:21:13;7.23;;;3.40;;
12122;SDS011;6125;59.628;17.852;2023-12-22T08:23:43;6.90;;;3.20;;
12122;SDS011;6125;59.628;17.852;2023-12-22T08:26:10;6.90;;;2.90;;
12122;SDS011;6125;59.628;17.852;2023-12-22T08:28:39;5.13;;;2.83;;
12122;SDS011;6125;59.628;17.852;2023-12-22T08:31:06;6.60;;;3.30;;
12122;SDS011;6125;59.628;17.852;2023-12-22T08:33:33;6.03;;;3.07;;
12122;SDS011;6125;59.628;17.852;2023-12-22T08:36:01;5.67;;;3.00;;
12122;SDS011;6125;59.628;17.852;2023-12-22T08:38:29;6.40;;;3.17;;
12122;SDS011;6125;59.628;17.852;2023-12-22T08:41:00;6.40;;;3.00;;
12122;SDS011;6125;59.628;17.852;2023-12-22T08:43:27;5.23;;;3.50;;
12122;SDS011;6125;59.628;17.852;2023-12-22T08:45:54;5.57;;;3.03;;
12122;SDS011;6125;59.628;17.852;2023-12-22T08:48:21;6.80;;;3.03;;
12122;SDS011;6125;59.628;17.852;2023-12-22T08:50:51;6.40;;;3.50;;
12122;SDS011;6125;59.628;17.852;2023-12-22T08:53:23;5.67;;;3.13;;
12122;SDS011;6125;59.628;17.852;2023-12-22T08:55:50;8.20;;;3.93;;
12122;SDS011;6125;59.628;17.852;2023-12-22T08:58:19;9.03;;;3.77;;
12122;SDS011;6125;59.628;17.852;2023-12-22T09:00:46;7.60;;;3.83;;
12122;SDS011;6125;59.628;17.852;2023-12-22T09:03:13;6.90;;;3.63;;
12122;SDS011;6125;59.628;17.852;2023-12-22T09:05:40;6.27;;;3.57;;
12122;SDS011;6125;59.628;17.852;2023-12-22T09:08:08;6.27;;;3.93;;
12122;SDS011;6125;59.628;17.852;2023-12-22T09:10:35;5.93;;;3.13;;
12122;SDS011;6125;59.628;17.852;2023-12-22T09:13:02;5.40;;;3.23;;
12122;SDS011;6125;59.628;17.852;2023-12-22T09:15:31;5.73;;;3.30;;
12122;SDS011;6125;59.628;17.852;2023-12-22T09:17:58;6.77;;;3.33;;
12122;SDS011;6125;59.628;17.852;2023-12-22T09:20:25;6.73;;;3.60;;
12122;SDS011;6125;59.628;17.852;2023-12-22T09:22:54;9.00;;;3.63;;
12122;SDS011;6125;59.628;17.852;2023-12-22T09:25:22;6.23;;;3.87;;
12122;SDS011;6125;59.628;17.852;2023-12-22T09:27:51;6.93;;;2.90;;
12122;SDS011;6125;59.628;17.852;2023-12-22T09:30:18;7.43;;;4.17;;
12122;SDS011;6125;59.628;17.852;2023-12-22T09:32:48;9.83;;;4.37;;
12122;SDS011;6125;59.628;17.852;2023-12-22T09:35:15;7.20;;;3.47;;
12122;SDS011;6125;59.628;17.852;2023-12-22T09:37:42;9.33;;;4.10;;
12122;SDS011;6125;59.628;17.852;2023-12-22T09:40:10;7.03;;;3.67;;
12122;SDS011;6125;59.628;17.852;2023-12-22T09:42:38;9.13;;;4.17;;
12122;SDS011;6125;59.628;17.852;2023-12-22T09:45:09;9.00;;;3.97;;
12122;SDS011;6125;59.628;17.852;2023-12-22T09:47:38;9.17;;;4.17;;
12122;SDS011;6125;59.628;17.852;2023-12-22T09:50:09;7.87;;;4.03;;
12122;SDS011;6125;59.628;17.852;2023-12-22T09:52:38;8.10;;;3.90;;
12122;SDS011;6125;59.628;17.852;2023-12-22T09:55:09;8.67;;;4.00;;
12122;SDS011;6125;59.628;17.852;2023-12-22T09:57:42;9.80;;;4.03;;
12122;SDS011;6125;59.628;17.852;2023-12-22T10:00:11;7.07;;;4.50;;
12122;SDS011;6125;59.628;17.852;2023-12-22T10:02:40;7.60;;;3.93;;
12122;SDS011;6125;59.628;17.852;2023-12-22T10:05:09;12.57;;;5.03;;
12122;SDS011;6125;59.628;17.852;2023-12-22T10:07:38;9.27;;;4.47;;
12122;SDS011;6125;59.628;17.852;2023-12-22T10:10:06;8.33;;;4.40;;
12122;SDS011;6125;59.628;17.852;2023-12-22T10:12:34;8.57;;;4.07;;
12122;SDS011;6125;59.628;17.852;2023-12-22T10:15:05;6.27;;;3.43;;
12122;SDS011;6125;59.628;17.852;2023-12-22T10:17:34;9.73;;;4.20;;
12122;SDS011;6125;59.628;17.852;2023-12-22T10:20:04;9.67;;;4.10;;
12122;SDS011;6125;59.628;17.852;2023-12-22T10:22:38;7.03;;;3.73;;
12122;SDS011;6125;59.628;17.852;2023-12-22T10:25:07;6.40;;;3.70;;
12122;SDS011;6125;59.628;17.852;2023-12-22T10:27:36;6.87;;;4.10;;
12122;SDS011;6125;59.628;17.852;2023-12-22T10:30:04;7.23;;;3.33;;
12122;SDS011;6125;59.628;17.852;2023-12-22T10:32:33;9.53;;;4.00;;
12122;SDS011;6125;59.628;17.852;2023-12-22T10:35:05;8.17;;;3.80;;
12122;SDS011;6125;59.628;17.852;2023-12-22T10:37:40;6.53;;;3.20;;
12122;SDS011;6125;59.628;17.852;2023-12-22T10:40:08;8.43;;;4.50;;
12122;SDS011;6125;59.628;17.852;2023-12-22T10:42:37;6.23;;;3.67;;
12122;SDS011;6125;59.628;17.852;2023-12-22T10:45:04;9.30;;;4.30;;
12122;SDS011;6125;59.628;17.852;2023-12-22T10:47:33;9.90;;;4.70;;
12122;SDS011;6125;59.628;17.852;2023-12-22T10:50:01;10.80;;;4.93;;
12122;SDS011;6125;59.628;17.852;2023-12-22T10:52:31;11.33;;;4.43;;
12122;SDS011;6125;59.628;17.852;2023-12-22T10:55:02;9.47;;;4.50;;
12122;SDS011;6125;59.628;17.852;2023-12-22T10:57:32;9.40;;;4.13;;
12122;SDS011;6125;59.628;17.852;2023-12-22T11:00:03;10.10;;;4.43;;
12122;SDS011;6125;59.628;17.852;2023-12-22T11:02:34;8.70;;;4.57;;
12122;SDS011;6125;59.628;17.852;2023-12-22T11:05:03;7.80;;;4.37;;
12122;SDS011;6125;59.628;17.852;2023-12-22T11:07:32;9.17;;;4.37;;
12122;SDS011;6125;59.628;17.852;2023-12-22T11:10:06;8.90;;;4.10;;
12122;SDS011;6125;59.628;17.852;2023-12-22T11:12:34;7.57;;;4.53;;
12122;SDS011;6125;59.628;17.852;2023-12-22T11:15:03;10.80;;;4.90;;
12122;SDS011;6125;59.628;17.852;2023-12-22T11:17:32;9.63;;;4.50;;
12122;SDS011;6125;59.628;17.852;2023-12-22T11:20:00;8.77;;;3.83;;
12122;SDS011;6125;59.628;17.852;2023-12-22T11:22:31;10.33;;;4.53;;
12122;SDS011;6125;59.628;17.852;2023-12-22T11:25:00;8.83;;;4.40;;
12122;SDS011;6125;59.628;17.852;2023-12-22T11:27:31;9.40;;;4.77;;
12122;SDS011;6125;59.628;17.852;2023-12-22T11:30:00;8.40;;;4.23;;
12122;SDS011;6125;59.628;17.852;2023-12-22T11:32:29;9.50;;;4.17;;
12122;SDS011;6125;59.628;17.852;2023-12-22T11:34:57;7.30;;;4.17;;
12122;SDS011;6125;59.628;17.852;2023-12-22T11:37:26;12.37;;;4.73;;
12122;SDS011;6125;59.628;17.852;2023-12-22T11:39:53;11.70;;;4.97;;
12122;SDS011;6125;59.628;17.852;2023-12-22T11:42:21;8.83;;;4.60;;
12122;SDS011;6125;59.628;17.852;2023-12-22T11:44:52;9.67;;;4.37;;
12122;SDS011;6125;59.628;17.852;2023-12-22T11:47:22;12.00;;;4.47;;
12122;SDS011;6125;59.628;17.852;2023-12-22T11:49:49;10.83;;;4.40;;
12122;SDS011;6125;59.628;17.852;2023-12-22T11:52:17;9.47;;;4.20;;
12122;SDS011;6125;59.628;17.852;2023-12-22T11:54:57;8.97;;;4.47;;
12122;SDS011;6125;59.628;17.852;2023-12-22T11:57:34;12.50;;;4.60;;
12122;SDS011;6125;59.628;17.852;2023-12-22T12:00:07;8.73;;;4.73;;
12122;SDS011;6125;59.628;17.852;2023-12-22T12:02:37;7.80;;;4.37;;
12122;SDS011;6125;59.628;17.852;2023-12-22T12:05:06;8.63;;;4.30;;
12122;SDS011;6125;59.628;17.852;2023-12-22T12:07:41;9.00;;;4.40;;
12122;SDS011;6125;59.628;17.852;2023-12-22T12:10:21;8.53;;;4.40;;
12122;SDS011;6125;59.628;17.852;2023-12-22T12:13:17;7.80;;;4.00;;
12122;SDS011;6125;59.628;17.852;2023-12-22T12:15:51;9.17;;;4.37;;
12122;SDS011;6125;59.628;17.852;2023-12-22T12:18:21;9.90;;;4.23;;
12122;SDS011;6125;59.628;17.852;2023-12-22T12:20:49;7.53;;;4.20;;
12122;SDS011;6125;59.628;17.852;2023-12-22T12:23:16;9.83;;;4.27;;
12122;SDS011;6125;59.628;17.852;2023-12-22T12:25:46;6.63;;;3.57;;
12122;SDS011;6125;59.628;17.852;2023-12-22T12:28:14;8.20;;;4.10;;
12122;SDS011;6125;59.628;17.852;2023-12-22T12:30:43;8.23;;;4.40;;
12122;SDS011;6125;59.628;17.852;2023-12-22T12:33:13;10.10;;;4.80;;
12122;SDS011;6125;59.628;17.852;2023-12-22T12:35:42;9.93;;;4.60;;
12122;SDS011;6125;59.628;17.852;2023-12-22T12:38:09;11.23;;;4.63;;
12122;SDS011;6125;59.628;17.852;2023-12-22T12:40:39;9.20;;;4.20;;
12122;SDS011;6125;59.628;17.852;2023-12-22T12:43:07;8.40;;;3.83;;
12122;SDS011;6125;59.628;17.852;2023-12-22T12:45:34;11.77;;;4.43;;
12122;SDS011;6125;59.628;17.852;2023-12-22T12:48:01;9.10;;;4.10;;
12122;SDS011;6125;59.628;17.852;2023-12-22T12:50:30;11.57;;;4.33;;
12122;SDS011;6125;59.628;17.852;2023-12-22T12:52:58;11.07;;;4.57;;
12122;SDS011;6125;59.628;17.852;2023-12-22T12:55:26;9.73;;;4.10;;
12122;SDS011;6125;59.628;17.852;2023-12-22T12:58:01;7.90;;;3.83;;
12122;SDS011;6125;59.628;17.852;2023-12-22T13:00:30;6.40;;;3.63;;
12122;SDS011;6125;59.628;17.852;2023-12-22T13:03:00;8.00;;;4.13;;
12122;SDS011;6125;59.628;17.852;2023-12-22T13:05:31;7.73;;;4.00;;
12122;SDS011;6125;59.628;17.852;2023-12-22T13:08:06;7.53;;;3.70;;
12122;SDS011;6125;59.628;17.852;2023-12-22T13:10:34;7.40;;;3.77;;
12122;SDS011;6125;59.628;17.852;2023-12-22T13:13:01;8.27;;;3.97;;
12122;SDS011;6125;59.628;17.852;2023-12-22T13:15:31;4.40;;;3.03;;
12122;SDS011;6125;59.628;17.852;2023-12-22T13:17:59;8.53;;;3.87;;
12122;SDS011;6125;59.628;17.852;2023-12-22T13:20:26;8.17;;;4.10;;
12122;SDS011;6125;59.628;17.852;2023-12-22T13:22:56;7.93;;;4.27;;
12122;SDS011;6125;59.628;17.852;2023-12-22T13:25:23;8.27;;;3.93;;
12122;SDS011;6125;59.628;17.852;2023-12-22T13:27:51;8.30;;;3.70;;
12122;SDS011;6125;59.628;17.852;2023-12-22T13:30:31;8.67;;;4.07;;
12122;SDS011;6125;59.628;17.852;2023-12-22T13:33:01;9.23;;;3.17;;
12122;SDS011;6125;59.628;17.852;2023-12-22T13:35:29;6.20;;;3.73;;
12122;SDS011;6125;59.628;17.852;2023-12-22T13:38:06;10.03;;;4.03;;
12122;SDS011;6125;59.628;17.852;2023-12-22T13:40:34;7.33;;;4.03;;
12122;SDS011;6125;59.628;17.852;2023-12-22T13:43:01;7.87;;;3.57;;
12122;SDS011;6125;59.628;17.852;2023-12-22T13:45:29;7.73;;;3.73;;
12122;SDS011;6125;59.628;17.852;2023-12-22T13:47:57;7.17;;;3.43;;
12122;SDS011;6125;59.628;17.852;2023-12-22T13:50:25;6.90;;;3.67;;
12122;SDS011;6125;59.628;17.852;2023-12-22T13:52:54;7.43;;;3.80;;
12122;SDS011;6125;59.628;17.852;2023-12-22T13:55:22;10.10;;;3.97;;
12122;SDS011;6125;59.628;17.852;2023-12-22T13:57:58;6.43;;;4.00;;
12122;SDS011;6125;59.628;17.852;2023-12-22T14:00:26;9.93;;;4.33;;
12122;SDS011;6125;59.628;17.852;2023-12-22T14:02:56;7.20;;;3.43;;
12122;SDS011;6125;59.628;17.852;2023-12-22T14:05:23;6.07;;;3.53;;
12122;SDS011;6125;59.628;17.852;2023-12-22T14:07:53;7.47;;;3.90;;
12122;SDS011;6125;59.628;17.852;2023-12-22T14:10:21;6.77;;;3.50;;
12122;SDS011;6125;59.628;17.852;2023-12-22T14:12:49;11.00;;;3.93;;
12122;SDS011;6125;59.628;17.852;2023-12-22T14:15:17;5.27;;;3.03;;
12122;SDS011;6125;59.628;17.852;2023-12-22T14:17:44;7.40;;;3.73;;
12122;SDS011;6125;59.628;17.852;2023-12-22T14:20:12;11.17;;;4.07;;
12122;SDS011;6125;59.628;17.852;2023-12-22T14:22:39;8.70;;;3.63;;
12122;SDS011;6125;59.628;17.852;2023-12-22T14:25:07;7.33;;;3.43;;
12122;SDS011;6125;59.628;17.852;2023-12-22T14:27:36;7.57;;;3.63;;
12122;SDS011;6125;59.628;17.852;2023-12-22T14:30:04;5.07;;;3.17;;
12122;SDS011;6125;59.628;17.852;2023-12-22T14:32:31;7.13;;;3.40;;
12122;SDS011;6125;59.628;17.852;2023-12-22T14:34:59;7.63;;;3.43;;
12122;SDS011;6125;59.628;17.852;2023-12-22T14:37:26;5.70;;;3.53;;
12122;SDS011;6125;59.628;17.852;2023-12-22T14:39:54;8.50;;;3.63;;
12122;SDS011;6125;59.628;17.852;2023-12-22T14:42:22;5.63;;;3.33;;
12122;SDS011;6125;59.628;17.852;2023-12-22T14:44:52;5.77;;;2.43;;
12122;SDS011;6125;59.628;17.852;2023-12-22T14:47:20;8.33;;;4.00;;
12122;SDS011;6125;59.628;17.852;2023-12-22T14:49:47;8.53;;;3.57;;
12122;SDS011;6125;59.628;17.852;2023-12-22T14:52:14;8.47;;;3.63;;
12122;SDS011;6125;59.628;17.852;2023-12-22T14:54:42;5.83;;;3.27;;
12122;SDS011;6125;59.628;17.852;2023-12-22T14:57:09;7.53;;;3.93;;
12122;SDS011;6125;59.628;17.852;2023-12-22T14:59:39;9.00;;;3.63;;